Time;durP1;ratioP1;P1;durP2;ratioP2;P2;SDS_P1;SDS_P2;PMS_P1;PMS_P2;Temp;Humidity;BMP_temperature;BMP_pressure;BME280_temperature;BME280_humidity;BME280_pressure;Samples;Min_cycle;Max_cycle;Signal;HPM_P1;HPM_P2
2022/05/02 00:00:24;;;;;;;2.52;1.82;;;;;;;19.87;41.73;101127.82;1757725;80;21067;-82
2022/05/02 00:02:56;;;;;;;2.72;2.20;;;;;;;19.86;41.73;101128.37;1758127;80;21208;-82
2022/05/02 00:05:22;;;;;;;3.55;2.45;;;;;;;19.88;41.72;101127.53;1779699;79;20986;-82
2022/05/02 00:07:49;;;;;;;3.80;2.35;;;;;;;19.86;41.71;101126.20;1779454;79;21080;-82
2022/05/02 00:10:15;;;;;;;2.98;2.17;;;;;;;19.86;41.73;101121.48;1779783;79;21012;-82
2022/05/02 00:12:41;;;;;;;2.42;1.87;;;;;;;19.86;41.75;101128.37;1779798;79;21020;-82
2022/05/02 00:15:08;;;;;;;2.50;2.20;;;;;;;19.86;41.75;101118.72;1779490;79;20980;-82
2022/05/02 00:20:35;;;;;;;2.90;1.95;;;;;;;19.86;41.74;101118.72;1762067;80;21553;-82
2022/05/02 00:23:08;;;;;;;4.62;2.95;;;;;;;19.85;41.62;101117.10;1779754;80;21578;-81
2022/05/02 00:25:34;;;;;;;3.62;2.72;;;;;;;19.85;41.75;101115.72;1778389;79;21087;-81
2022/05/02 00:28:00;;;;;;;3.90;2.30;;;;;;;19.84;41.74;101116.84;1779788;79;21277;-81
2022/05/02 00:30:27;;;;;;;3.30;2.10;;;;;;;19.85;41.74;101117.66;1779520;80;21471;-81
2022/05/02 00:32:53;;;;;;;4.05;2.40;;;;;;;19.84;41.75;101112.70;1779374;80;22111;-81
2022/05/02 00:35:20;;;;;;;2.95;2.47;;;;;;;19.84;41.75;101117.39;1779561;79;21107;-81
2022/05/02 00:37:47;;;;;;;3.10;2.40;;;;;;;19.84;41.76;101114.08;1779561;79;22278;-81
2022/05/02 00:40:15;;;;;;;3.47;2.40;;;;;;;19.84;41.77;101118.77;1779426;79;21246;-81
2022/05/02 00:42:45;;;;;;;2.35;2.15;;;;;;;19.84;41.77;101119.59;1779533;79;21032;-81
2022/05/02 00:45:13;;;;;;;3.47;2.37;;;;;;;19.85;41.76;101122.63;1779890;80;21080;-81
2022/05/02 00:47:40;;;;;;;3.08;2.17;;;;;;;19.84;41.76;101120.98;1758130;79;21494;-81
2022/05/02 00:50:08;;;;;;;3.08;2.50;;;;;;;19.84;41.75;101125.13;1731059;82;21036;-81
2022/05/02 00:52:35;;;;;;;3.62;2.25;;;;;;;19.83;41.75;101122.09;1744413;82;21817;-81
2022/05/02 00:55:02;;;;;;;3.12;2.45;;;;;;;19.84;41.77;101121.53;1723308;82;21088;-81
2022/05/02 00:57:28;;;;;;;3.00;2.20;;;;;;;19.83;41.75;101123.48;1744694;82;21566;-81
2022/05/02 00:59:54;;;;;;;2.98;2.10;;;;;;;19.84;41.75;101128.44;1744357;82;21061;-81
2022/05/02 01:02:21;;;;;;;2.83;2.35;;;;;;;19.82;41.77;101121.83;1744304;82;21044;-81
2022/05/02 01:04:47;;;;;;;3.20;2.47;;;;;;;19.83;41.76;101121.27;1744543;82;21299;-81
2022/05/02 01:07:19;;;;;;;3.45;2.40;;;;;;;19.83;41.75;101123.48;1744476;82;21020;-81
2022/05/02 01:09:44;;;;;;;3.35;2.60;;;;;;;19.83;41.76;101126.23;1743894;82;21056;-81
2022/05/02 01:12:14;;;;;;;3.17;2.52;;;;;;;19.82;41.76;101131.49;1744579;82;21060;-81
2022/05/02 01:14:41;;;;;;;3.00;2.40;;;;;;;19.82;41.75;101127.35;1744582;82;21574;-81
2022/05/02 01:17:08;;;;;;;2.92;2.30;;;;;;;19.82;41.73;101123.21;1744313;82;21176;-81
2022/05/02 01:19:34;;;;;;;3.33;2.70;;;;;;;19.83;41.73;101123.48;1744528;81;21053;-81
2022/05/02 01:22:01;;;;;;;3.60;2.70;;;;;;;19.82;41.73;101121.01;1744488;82;21041;-81
2022/05/02 01:24:36;;;;;;;3.72;2.35;;;;;;;19.82;41.75;101127.35;1744236;82;20966;-81
2022/05/02 01:27:03;;;;;;;3.30;2.58;;;;;;;19.82;41.76;101121.01;1744471;82;21415;-82
2022/05/02 01:29:31;;;;;;;4.53;2.90;;;;;;;19.82;41.73;101126.53;1744237;82;21096;-82
2022/05/02 01:31:58;;;;;;;4.05;2.50;;;;;;;19.82;41.72;101125.15;1744545;82;21573;-82
2022/05/02 01:34:24;;;;;;;4.12;2.85;;;;;;;19.82;41.73;101122.39;1744576;82;20918;-82
2022/05/02 01:36:50;;;;;;;4.22;2.60;;;;;;;19.81;41.73;101120.22;1744270;82;21096;-82
2022/05/02 01:39:23;;;;;;;3.70;3.08;;;;;;;19.81;41.72;101114.70;1744341;82;22154;-82
2022/05/02 01:41:50;;;;;;;4.50;3.27;;;;;;;19.81;41.72;101115.25;1718994;82;22416;-82
2022/05/02 01:44:26;;;;;;;4.00;2.75;;;;;;;19.80;41.73;101112.23;1743745;80;20996;-82
2022/05/02 01:46:53;;;;;;;3.52;2.62;;;;;;;19.80;41.71;101110.29;1744148;82;21112;-81
2022/05/02 01:49:20;;;;;;;3.77;2.65;;;;;;;19.80;41.71;101108.91;1751789;80;20997;-82
2022/05/02 01:51:46;;;;;;;4.53;2.90;;;;;;;19.81;41.70;101105.59;1782481;80;21016;-82
2022/05/02 01:54:12;;;;;;;3.62;2.67;;;;;;;19.80;41.70;101107.53;1782290;78;21303;-82
2022/05/02 01:56:38;;;;;;;4.05;2.90;;;;;;;19.80;41.71;101106.70;1782007;80;21020;-82
2022/05/02 01:59:05;;;;;;;4.90;3.10;;;;;;;19.81;41.70;101115.25;1782381;79;21068;-82
2022/05/02 02:01:32;;;;;;;4.53;2.92;;;;;;;19.80;41.71;101108.09;1782159;79;21036;-82
2022/05/02 02:05:48;;;;;;;3.08;2.58;;;;;;;19.80;41.71;101119.95;1782103;79;21061;-82
2022/05/02 02:06:30;;;;;;;4.17;2.80;;;;;;;19.80;41.71;101126.03;1778871;79;21468;-82
2022/05/02 02:08:56;;;;;;;4.37;2.52;;;;;;;19.80;41.67;101125.48;1782442;79;20986;-82
2022/05/02 02:11:23;;;;;;;3.87;2.83;;;;;;;19.79;41.67;101117.48;1782167;80;21029;-82
2022/05/02 02:13:49;;;;;;;3.60;2.98;;;;;;;19.79;41.67;101119.69;1782590;80;21417;-82
2022/05/02 02:16:15;;;;;;;4.87;2.55;;;;;;;19.80;41.69;101122.72;1782159;79;21411;-82
2022/05/02 02:18:42;;;;;;;3.52;2.67;;;;;;;19.80;41.67;101127.41;1786723;78;21156;-81
2022/05/02 02:21:11;;;;;;;3.62;2.58;;;;;;;19.80;41.68;101123.27;1782663;80;20995;-82
2022/05/02 02:23:37;;;;;;;3.37;2.70;;;;;;;19.80;41.69;101126.85;1782406;80;21076;-82
2022/05/02 02:26:06;;;;;;;4.87;3.12;;;;;;;19.80;41.67;101123.27;1762610;80;21040;-82
2022/05/02 02:28:33;;;;;;;4.28;2.70;;;;;;;19.78;41.67;101119.42;1738963;80;20933;-81
2022/05/02 02:30:59;;;;;;;3.80;2.50;;;;;;;19.78;41.66;101114.45;1785597;79;21143;-81
2022/05/02 02:33:26;;;;;;;3.77;2.72;;;;;;;19.78;41.66;101115.84;1785723;79;21020;-82
2022/05/02 02:35:52;;;;;;;4.00;2.65;;;;;;;19.79;41.67;101109.20;1764065;80;21012;-82
2022/05/02 02:38:19;;;;;;;3.60;2.55;;;;;;;19.78;41.66;101112.52;1763441;80;20983;-82
2022/05/02 02:40:45;;;;;;;4.35;2.80;;;;;;;19.79;41.64;101112.78;1784925;80;20976;-82
2022/05/02 02:43:11;;;;;;;3.75;2.83;;;;;;;19.78;41.67;101112.52;1782524;78;21285;-82
2022/05/02 02:45:37;;;;;;;3.70;2.55;;;;;;;19.77;41.66;101113.67;1782373;79;21068;-82
2022/05/02 02:48:04;;;;;;;4.28;2.42;;;;;;;19.77;41.65;101110.91;1782876;80;21059;-82
2022/05/02 02:50:31;;;;;;;3.37;2.75;;;;;;;19.78;41.65;101115.84;1769968;80;21061;-82
2022/05/02 02:52:57;;;;;;;3.30;2.47;;;;;;;19.77;41.65;101112.29;1741181;81;21025;-82
2022/05/02 02:55:24;;;;;;;3.12;2.52;;;;;;;19.77;41.64;101112.29;1760611;81;20977;-82
2022/05/02 02:57:51;;;;;;;5.25;2.87;;;;;;;19.77;41.65;101114.23;1760474;80;21054;-81
2022/05/02 03:00:18;;;;;;;4.03;2.95;;;;;;;19.78;41.64;101110.31;1760274;80;21045;-82
2022/05/02 03:02:44;;;;;;;4.67;2.75;;;;;;;19.78;41.64;101107.55;1760362;80;21535;-82
2022/05/02 03:07:57;;;;;;;3.72;2.85;;;;;;;19.77;41.60;101107.33;1760173;81;21487;-81
2022/05/02 03:10:23;;;;;;;4.80;2.90;;;;;;;19.77;41.61;101110.08;1760188;81;20986;-81
2022/05/02 03:12:49;;;;;;;4.60;2.83;;;;;;;19.76;41.60;101110.64;1760102;81;21151;-81
2022/05/02 03:15:16;;;;;;;3.95;3.10;;;;;;;19.76;41.60;101109.82;1759794;81;20985;-81
2022/05/02 03:17:42;;;;;;;3.60;2.80;;;;;;;19.76;41.59;101108.44;1759871;81;21029;-81
2022/05/02 03:20:10;;;;;;;3.58;2.90;;;;;;;19.76;41.60;101104.30;1760010;81;21300;-81
2022/05/02 03:22:36;;;;;;;4.85;3.08;;;;;;;19.75;41.60;101106.23;1760027;81;21424;-81
2022/05/02 03:25:03;;;;;;;3.45;2.65;;;;;;;19.76;41.59;101101.53;1766555;81;21032;-81
2022/05/02 03:27:29;;;;;;;3.72;2.85;;;;;;;19.75;41.60;101102.09;1766477;80;20994;-81
2022/05/02 03:29:55;;;;;;;4.35;2.72;;;;;;;19.75;41.61;101102.09;1759930;81;20990;-81
2022/05/02 03:32:21;;;;;;;4.80;2.98;;;;;;;19.75;41.60;101100.72;1760128;81;22124;-81
2022/05/02 03:34:48;;;;;;;3.60;2.67;;;;;;;19.76;41.59;101101.53;1740937;81;21001;-81
2022/05/02 03:37:14;;;;;;;4.72;3.00;;;;;;;19.75;41.59;101101.27;1760159;81;21057;-81
2022/05/02 03:39:40;;;;;;;3.45;3.02;;;;;;;19.74;41.59;101099.06;1760360;81;21084;-81
2022/05/02 03:42:07;;;;;;;3.47;2.60;;;;;;;19.75;41.55;101097.95;1760560;81;21080;-81
2022/05/02 03:44:33;;;;;;;3.65;3.02;;;;;;;19.74;41.59;101097.69;1759828;80;21299;-81
2022/05/02 03:47:00;;;;;;;3.83;3.08;;;;;;;19.74;41.59;101093.55;1766259;80;21479;-81
2022/05/02 03:49:26;;;;;;;4.42;2.92;;;;;;;19.74;41.59;101085.83;1760153;80;21113;-81
2022/05/02 03:51:53;;;;;;;3.35;2.85;;;;;;;19.74;41.56;101094.11;1760035;81;21479;-81
2022/05/02 03:54:19;;;;;;;7.80;2.75;;;;;;;19.74;41.55;101093.55;1740989;81;20993;-81
2022/05/02 03:56:45;;;;;;;3.37;2.72;;;;;;;19.73;41.53;101101.56;1740920;81;21297;-78
2022/05/02 03:59:11;;;;;;;4.47;2.85;;;;;;;19.74;41.53;101099.06;1759840;81;21065;-77
2022/05/02 04:01:40;;;;;;;5.72;2.85;;;;;;;19.74;41.53;101101.01;1760157;81;21064;-77
2022/05/02 04:04:05;;;;;;;6.08;2.77;;;;;;;19.74;41.52;101099.62;1760051;81;21070;-78
2022/05/02 04:06:31;;;;;;;4.67;2.70;;;;;;;19.73;41.49;101098.80;1741018;81;21525;-78
2022/05/02 04:08:58;;;;;;;5.62;3.00;;;;;;;19.72;41.51;101093.05;1760240;81;21216;-78
2022/05/02 04:11:24;;;;;;;9.15;2.90;;;;;;;19.72;41.51;101092.23;1760228;80;21487;-78
2022/05/02 04:13:50;;;;;;;4.33;3.08;;;;;;;19.71;41.51;101081.75;1759939;81;21448;-79
2022/05/02 04:16:17;;;;;;;5.65;2.52;;;;;;;19.71;41.50;101086.44;1759991;81;21038;-79
2022/05/02 04:18:43;;;;;;;5.53;2.98;;;;;;;19.68;41.39;101087.06;1753438;80;21696;-79
2022/05/02 04:21:09;;;;;;;8.40;3.25;;;;;;;19.64;41.31;101081.34;1744825;82;21483;-78
2022/05/02 04:23:36;;;;;;;3.60;2.60;;;;;;;19.58;41.28;101079.22;1745058;82;21049;-78
2022/05/02 04:26:04;;;;;;;8.08;2.98;;;;;;;19.55;41.17;101087.30;1736641;81;21484;-78
2022/05/02 04:28:30;;;;;;;5.17;2.70;;;;;;;19.51;41.11;101083.51;1728429;81;21459;-78
2022/05/02 04:30:57;;;;;;;4.05;2.80;;;;;;;19.47;41.01;101083.86;1703210;81;21147;-79
2022/05/02 04:33:24;;;;;;;5.72;3.12;;;;;;;19.42;40.94;101090.25;1753755;80;21978;-78
2022/05/02 04:35:50;;;;;;;9.78;2.98;;;;;;;19.39;40.95;101092.21;1738534;80;20973;-78
2022/05/02 04:38:16;;;;;;;6.47;3.12;;;;;;;19.36;40.90;101092.00;1701926;82;21107;-78
2022/05/02 04:40:42;;;;;;;7.92;3.08;;;;;;;19.35;40.85;101092.56;1683538;83;21584;-80
2022/05/02 04:43:09;;;;;;;6.05;3.08;;;;;;;19.35;40.84;101095.91;1677164;84;21046;-81
2022/05/02 04:45:35;;;;;;;7.17;3.10;;;;;;;19.36;40.86;101094.20;1699436;83;21754;-82
2022/05/02 04:48:09;;;;;;;6.95;2.90;;;;;;;19.34;40.88;101092.33;1695599;83;21069;-85
2022/05/02 04:50:36;;;;;;;7.78;3.15;;;;;;;19.35;40.85;101095.91;1755676;81;21045;-84
2022/05/02 04:53:02;;;;;;;13.13;3.85;;;;;;;19.37;40.80;101098.61;1759191;79;21113;-81
2022/05/02 04:55:29;;;;;;;13.32;3.10;;;;;;;19.36;40.87;101100.28;1770585;79;21627;-84
2022/05/02 04:57:55;;;;;;;12.15;3.58;;;;;;;19.37;40.93;101099.98;1758978;80;21551;-84
2022/05/02 05:00:28;;;;;;;11.25;4.20;;;;;;;19.39;41.02;101095.56;1742088;81;21116;-84
2022/05/02 05:02:54;;;;;;;8.35;3.58;;;;;;;19.43;41.03;101099.38;1743276;80;21566;-81
2022/05/02 05:05:20;;;;;;;14.00;3.72;;;;;;;19.48;41.02;101104.78;1739267;81;21111;-80
2022/05/02 05:07:47;;;;;;;12.88;6.12;;;;;;;19.54;40.97;101096.69;1752115;79;21085;-81
2022/05/02 05:10:14;;;;;;;13.20;5.10;;;;;;;19.58;40.92;101097.72;1755239;80;21702;-79
2022/05/02 05:13:06;;;;;;;10.08;4.80;;;;;;;19.65;40.83;101105.03;1758440;79;21022;-78
2022/05/02 05:18:58;;;;;;;8.25;3.40;;;;;;;19.77;40.50;101099.86;1724691;80;21060;-78
2022/05/02 05:21:32;;;;;;;9.23;2.92;;;;;;;19.85;40.26;101100.53;1763777;80;21058;-79
2022/05/02 05:24:40;;;;;;;6.40;3.65;;;;;;;19.94;40.02;101097.88;1738315;80;21068;-79
2022/05/02 05:27:48;;;;;;;9.28;2.85;;;;;;;20.00;39.83;101095.26;1747187;80;21093;-78
2022/05/02 05:30:19;;;;;;;6.55;3.58;;;;;;;20.09;39.61;101098.95;1750424;81;21060;-79
2022/05/02 05:33:07;;;;;;;6.92;3.40;;;;;;;20.17;39.37;101101.55;1753771;80;21213;-79
2022/05/02 05:35:54;;;;;;;5.53;2.58;;;;;;;20.22;39.18;101108.36;1743734;80;21066;-78
2022/05/02 05:38:47;;;;;;;6.10;2.65;;;;;;;20.25;39.01;101096.12;1743869;80;21570;-78
2022/05/02 05:41:37;;;;;;;6.25;2.55;;;;;;;20.31;38.86;101096.88;1747252;81;21060;-78
2022/05/02 05:44:30;;;;;;;5.27;2.93;;;;;;;20.38;38.69;101098.65;1744814;80;21066;-78
2022/05/02 05:47:11;;;;;;;3.12;2.17;;;;;;;20.42;38.55;101107.40;1753605;80;21077;-80
2022/05/02 05:50:22;;;;;;;;;;;;;;;20.47;38.34;101104.53;1728951;80;21593;-82
2022/05/02 05:53:06;;;;;;;17.12;3.62;;;;;;;20.49;38.38;101100.09;1756825;80;21045;-82
2022/05/02 05:55:58;;;;;;;8.00;3.35;;;;;;;20.53;38.70;101104.42;1743404;80;21128;-81
2022/05/02 05:58:55;;;;;;;10.20;3.25;;;;;;;20.59;38.72;101105.93;1756413;80;21173;-81
2022/05/02 06:01:58;;;;;;;14.55;4.28;;;;;;;20.67;38.72;101104.63;1723255;81;21477;-85
2022/05/02 06:04:26;;;;;;;21.50;4.90;;;;;;;20.76;38.81;101104.16;1709817;81;21078;-80
2022/05/02 06:06:54;;;;;;;15.40;4.45;;;;;;;20.82;38.85;101103.48;1726769;80;21112;-81
2022/05/02 06:09:20;;;;;;;19.42;4.10;;;;;;;20.87;38.91;101100.05;1764429;80;20999;-80
2022/05/02 06:11:47;;;;;;;19.62;4.65;;;;;;;20.92;38.90;101101.28;1751270;79;21094;-80
2022/05/02 06:14:14;;;;;;;24.35;4.72;;;;;;;20.96;38.89;101106.44;1754980;80;21046;-79
2022/05/02 06:19:30;;;;;;;10.08;5.30;;;;;;;21.07;38.99;101106.20;1738317;80;21278;-78
2022/05/02 06:21:59;;;;;;;16.20;5.92;;;;;;;21.09;39.08;101095.66;1732834;80;21089;-79
2022/05/02 06:24:28;;;;;;;21.27;6.33;;;;;;;21.12;39.11;101097.79;1711596;81;21629;-82
2022/05/02 06:26:55;;;;;;;20.08;8.30;;;;;;;21.15;39.15;101095.80;1706031;83;22119;-78
2022/05/02 06:29:24;;;;;;;14.18;7.50;;;;;;;21.17;39.20;101098.52;1696888;83;21065;-79
2022/05/02 06:31:54;;;;;;;16.48;7.20;;;;;;;21.19;39.26;101096.25;1672091;83;21377;-78
2022/05/02 06:34:29;;;;;;;13.37;6.93;;;;;;;21.24;39.30;101099.45;1695698;83;21108;-78
2022/05/02 06:37:19;;;;;;;26.65;8.03;;;;;;;21.26;39.33;101096.61;1709137;83;21085;-79
2022/05/02 06:40:06;;;;;;;25.12;7.12;;;;;;;21.29;39.34;101101.54;1694178;83;21077;-78
2022/05/02 06:42:47;;;;;;;14.33;7.33;;;;;;;21.32;39.33;101094.55;1693176;83;21092;-78
2022/05/02 06:45:22;;;;;;;;;;;;;;;21.34;39.31;101094.47;1674654;83;21204;-78
2022/05/02 06:48:27;;;;;;;18.65;8.35;;;;;;;21.36;39.36;101099.70;1689533;83;20361;-83
2022/05/02 06:51:01;;;;;;;29.15;10.68;;;;;;;21.38;39.35;101098.27;1688466;82;21117;-77
2022/05/02 06:54:00;;;;;;;39.33;10.63;;;;;;;21.41;39.60;101099.57;1688598;81;21057;-79
2022/05/02 06:57:18;;;;;;;31.00;9.38;;;;;;;21.46;39.73;101101.39;1691698;82;21142;-82
2022/05/02 07:00:10;;;;;;;33.65;8.03;;;;;;;21.50;39.84;101101.02;1707812;82;22020;-82
2022/05/02 07:03:25;;;;;;;24.92;8.03;;;;;;;21.55;39.96;101096.73;1700060;81;21085;-81
2022/05/02 07:06:21;;;;;;;22.60;7.22;;;;;;;21.59;40.09;101102.70;1712462;82;21426;-81
2022/05/02 07:09:01;;;;;;;28.23;6.50;;;;;;;21.64;40.09;101099.78;1702835;82;21939;-83
2022/05/02 07:11:37;;;;;;;27.43;7.10;;;;;;;21.65;40.05;101089.52;1713042;82;21068;-81
2022/05/02 07:14:11;;;;;;;26.95;6.72;;;;;;;21.65;40.06;101094.50;1702473;83;21375;-79
2022/05/02 07:16:42;;;;;;;19.30;6.58;;;;;;;21.66;40.12;101096.14;1695192;82;21141;-83
2022/05/02 07:19:28;;;;;;;24.92;6.80;;;;;;;21.66;40.19;101089.78;1703895;82;21053;-81
2022/05/02 07:21:59;;;;;;;22.25;6.85;;;;;;;21.65;40.26;101091.73;1677286;82;21102;-79
2022/05/02 07:24:48;;;;;;;23.00;7.70;;;;;;;21.65;40.31;101097.83;1695837;82;21137;-79
2022/05/02 07:27:25;;;;;;;24.23;6.62;;;;;;;21.64;40.38;101097.60;1714330;82;21626;-80
2022/05/02 07:29:51;;;;;;;23.87;7.20;;;;;;;21.62;40.45;101099.86;1713740;82;21153;-80
2022/05/02 07:32:21;;;;;;;17.02;6.60;;;;;;;21.61;40.48;101100.98;1709350;81;21666;-80
2022/05/02 07:34:48;;;;;;;20.20;7.22;;;;;;;21.59;40.53;101111.02;1703339;83;21024;-76
2022/05/02 07:37:15;;;;;;;21.82;6.70;;;;;;;21.57;40.56;101107.73;1710336;83;21070;-78
2022/05/02 07:39:41;;;;;;;12.85;6.45;;;;;;;21.56;40.58;101106.09;1685555;84;21224;-75
2022/05/02 07:42:09;;;;;;;20.95;7.25;;;;;;;21.56;40.62;101106.65;1718664;82;20997;-78
2022/05/02 07:44:36;;;;;;;15.03;6.87;;;;;;;21.54;40.63;101106.98;1709810;81;21315;-80
2022/05/02 07:47:04;;;;;;;22.52;8.85;;;;;;;21.53;40.66;101106.73;1705375;82;21152;-80
2022/05/02 07:49:34;;;;;;;32.83;9.65;;;;;;;21.51;40.68;101107.63;1701543;82;21088;-80
2022/05/02 07:52:04;;;;;;;24.55;9.58;;;;;;;21.52;40.81;101109.80;1693880;83;21352;-80
2022/05/02 07:54:37;;;;;;;26.35;8.20;;;;;;;21.52;40.90;101107.03;1690018;82;21480;-82
2022/05/02 07:57:05;;;;;;;37.95;9.08;;;;;;;21.50;41.00;101101.02;1693984;83;21073;-83
2022/05/02 07:59:39;;;;;;;31.15;6.85;;;;;;;21.49;41.11;101101.58;1741712;80;21039;-81
2022/05/02 08:02:06;;;;;;;32.95;6.78;;;;;;;21.49;41.13;101100.75;1745607;80;21134;-80
2022/05/02 08:04:40;;;;;;;31.95;6.40;;;;;;;21.49;41.06;101092.45;1766054;79;21160;-82
2022/05/02 08:07:21;;;;;;;28.27;6.08;;;;;;;21.49;41.01;101091.06;1758327;79;21057;-81
2022/05/02 08:09:58;;;;;;;19.48;6.12;;;;;;;21.46;40.97;101098.06;1732068;80;21141;-86
2022/05/02 08:13:07;;;;;;;20.52;5.80;;;;;;;21.43;40.75;101092.34;1745768;80;21040;-84
2022/05/02 08:15:40;;;;;;;20.70;5.80;;;;;;;21.41;40.68;101099.02;1753297;80;21061;-83
2022/05/02 08:18:42;;;;;;;16.50;5.78;;;;;;;21.38;40.78;101095.50;1746635;80;21777;-81
2022/05/02 08:21:20;;;;;;;20.40;6.65;;;;;;;21.38;40.90;101094.68;1758901;80;21764;-82
2022/05/02 08:27:20;;;;;;;28.05;6.67;;;;;;;21.32;41.02;101091.21;1743443;80;38833;-83
2022/05/02 08:30:16;;;;;;;16.95;6.47;;;;;;;21.29;41.03;101088.27;1734973;81;21151;-86
2022/05/02 08:33:06;;;;;;;19.07;5.83;;;;;;;21.27;41.08;101083.59;1724516;81;21848;-87
2022/05/02 08:35:40;;;;;;;22.52;5.97;;;;;;;21.27;41.16;101100.20;1757797;79;21068;-89
2022/05/02 08:38:32;;;;;;;29.80;6.60;;;;;;;21.25;41.21;101083.11;1749387;80;21037;-88
2022/05/02 08:41:33;;;;;;;23.40;6.42;;;;;;;21.24;41.25;101080.08;1757841;80;21022;-88
2022/05/02 08:44:17;;;;;;;22.62;5.62;;;;;;;21.23;41.27;101075.67;1753837;80;21626;-85
2022/05/02 08:47:16;;;;;;;21.20;5.67;;;;;;;21.20;41.22;101073.55;1758103;79;21166;-80
2022/05/02 08:50:07;;;;;;;25.25;5.22;;;;;;;21.19;41.37;101080.20;1729992;81;21055;-82
2022/05/02 08:53:20;;;;;;;22.22;4.35;;;;;;;21.18;41.35;101082.16;1745185;79;21148;-81
2022/05/02 08:56:09;;;;;;;27.45;5.08;;;;;;;21.18;41.36;101071.09;1772486;78;21143;-81
2022/05/02 08:59:02;;;;;;;18.40;5.00;;;;;;;21.16;41.40;101062.86;1761793;79;21188;-79
2022/05/02 09:01:40;;;;;;;19.37;4.10;;;;;;;21.16;41.47;101064.24;1749960;80;21298;-78
2022/05/02 09:04:21;;;;;;;20.40;4.70;;;;;;;21.15;41.60;101062.04;1762976;79;21107;-80
2022/05/02 09:07:32;;;;;;;23.42;4.33;;;;;;;21.15;41.72;101057.06;1756254;80;21066;-78
2022/05/02 09:10:20;;;;;;;24.95;5.17;;;;;;;21.15;41.74;101048.77;1735386;79;21124;-80
2022/05/02 09:13:11;;;;;;;14.65;4.22;;;;;;;21.14;41.72;101048.51;1736273;80;21114;-78
2022/05/02 09:15:58;;;;;;;12.68;3.17;;;;;;;21.12;41.56;101041.08;1756318;80;21132;-79
2022/05/02 09:18:51;;;;;;;13.43;3.62;;;;;;;21.09;41.17;101040.33;1738359;80;21614;-76
2022/05/02 09:21:44;;;;;;;16.95;3.85;;;;;;;21.07;41.04;101038.43;1726983;80;21056;-79
2022/05/02 09:24:42;;;;;;;12.37;3.42;;;;;;;21.03;40.85;101028.56;1730496;81;21578;-79
2022/05/02 09:27:35;;;;;;;13.72;3.05;;;;;;;21.03;40.72;101030.52;1720858;82;21053;-78
2022/05/02 09:30:33;;;;;;;10.15;3.35;;;;;;;21.01;40.57;101021.14;1735956;80;21481;-79
2022/05/02 09:33:33;;;;;;;8.98;3.00;;;;;;;21.01;40.46;101012.84;1683802;83;21127;-80
2022/05/02 09:36:26;;;;;;;10.40;3.07;;;;;;;21.00;40.44;101007.08;1672069;83;21555;-79
2022/05/02 09:39:14;;;;;;;14.03;2.60;;;;;;;21.00;40.42;101006.25;1725471;79;21468;-80
2022/05/02 09:42:33;;;;;;;9.73;2.75;;;;;;;20.99;40.40;101002.67;1764473;79;21056;-79
2022/05/02 09:51:55;;;;;;;38.53;5.20;;;;;;;20.96;40.27;100988.09;1775334;79;21032;-80
2022/05/02 09:58:03;;;;;;;20.82;3.35;;;;;;;20.95;40.35;100980.92;1740724;80;21053;-80
2022/05/02 10:01:06;;;;;;;19.73;3.05;;;;;;;20.98;40.52;100981.10;1734995;80;21780;-78
2022/05/02 10:03:42;;;;;;;13.28;3.10;;;;;;;20.98;40.41;100967.27;1747260;79;21057;-78
2022/05/02 10:06:22;;;;;;;9.48;2.10;;;;;;;20.96;40.41;100969.52;1700885;81;21547;-77
2022/05/02 10:08:55;;;;;;;16.10;2.95;;;;;;;20.95;40.05;100962.38;1662016;83;21282;-80
2022/05/02 10:11:48;;;;;;;16.57;3.87;;;;;;;20.96;40.12;100959.05;1698656;82;21060;-77
2022/05/02 10:14:31;;;;;;;12.70;2.85;;;;;;;20.94;40.15;100953.83;1700396;82;21178;-78
2022/05/02 10:17:08;;;;;;;11.03;2.77;;;;;;;20.93;40.21;100952.19;1694186;82;21748;-80
2022/05/02 10:19:43;;;;;;;30.50;3.70;;;;;;;20.92;40.12;100945.02;1669956;82;21834;-79
2022/05/02 10:22:36;;;;;;;24.23;3.05;;;;;;;20.91;40.00;100944.79;1758261;79;21041;-78
2022/05/02 10:25:23;;;;;;;20.25;3.08;;;;;;;20.91;39.92;100945.35;1737449;80;21189;-79
2022/05/02 10:28:14;;;;;;;17.62;3.83;;;;;;;20.91;40.06;100930.14;1732811;79;21101;-78
2022/05/02 10:31:09;;;;;;;25.95;2.87;;;;;;;20.91;40.08;100939.26;1756347;80;21082;-78
2022/05/02 10:33:48;;;;;;;16.20;2.72;;;;;;;20.91;40.01;100926.81;1774506;79;21045;-79
2022/05/02 10:36:14;;;;;;;12.60;3.25;;;;;;;20.90;40.00;100922.41;1757615;80;21150;-79
2022/05/02 10:38:52;;;;;;;14.40;2.77;;;;;;;20.91;40.09;100925.43;1750809;80;21575;-79
2022/05/02 10:41:29;;;;;;;20.55;2.98;;;;;;;20.91;40.12;100924.05;1756557;80;21157;-78
2022/05/02 10:44:03;;;;;;;8.00;2.52;;;;;;;20.92;40.08;100920.69;1759697;80;21112;-80
2022/05/02 10:46:31;;;;;;;17.05;2.58;;;;;;;20.92;40.03;100902.14;1746534;80;21347;-81
2022/05/02 10:49:24;;;;;;;14.55;2.70;;;;;;;20.93;40.06;100909.88;1756297;80;21079;-79
2022/05/02 10:52:32;;;;;;;17.52;3.65;;;;;;;20.92;40.02;100910.45;1756779;80;21080;-79
2022/05/02 10:55:05;;;;;;;19.35;2.77;;;;;;;20.91;40.41;100896.95;1754885;80;21184;-79
2022/05/02 10:57:48;;;;;;;9.45;3.45;;;;;;;20.92;40.96;100902.14;1739552;80;21535;-75
2022/05/02 11:00:15;;;;;;;17.37;3.70;;;;;;;20.94;41.51;100901.84;1753629;79;21110;-78
2022/05/02 11:03:21;;;;;;;10.58;2.77;;;;;;;20.94;41.63;100906.81;1769664;78;21044;-79
2022/05/02 11:06:28;;;;;;;10.95;2.12;;;;;;;20.95;41.35;100901.53;1773499;78;21073;-80
2022/05/02 11:09:01;;;;;;;20.90;2.12;;;;;;;20.93;40.89;100898.82;1779398;79;21261;-80
2022/05/02 11:11:46;;;;;;;6.50;1.80;;;;;;;20.93;40.62;100893.29;1780769;79;21083;-80
2022/05/02 11:14:57;;;;;;;7.75;1.87;;;;;;;20.90;40.01;100893.93;1771685;79;21025;-80
2022/05/02 11:18:08;;;;;;;9.57;1.90;;;;;;;20.88;39.77;100894.23;1775351;78;21128;-77
2022/05/02 11:21:26;;;;;;;16.02;2.50;;;;;;;20.88;39.81;100896.19;1773027;79;22057;-79
2022/05/02 11:24:12;;;;;;;5.50;1.70;;;;;;;20.86;39.77;100889.61;1722315;80;21144;-79
2022/05/02 11:26:48;;;;;;;8.95;2.00;;;;;;;20.85;39.76;100886.58;1773423;79;21107;-79
2022/05/02 11:29:50;;;;;;;5.70;1.92;;;;;;;20.85;39.74;100881.05;1783216;78;21024;-78
2022/05/02 11:32:27;;;;;;;12.58;2.22;;;;;;;20.85;39.44;100885.77;1761405;79;20966;-77
2022/05/02 11:35:15;;;;;;;7.65;2.00;;;;;;;20.85;39.17;100889.91;1757300;80;21543;-78
2022/05/02 11:38:06;;;;;;;9.88;2.00;;;;;;;20.85;39.23;100885.20;1750622;79;21125;-77
2022/05/02 11:40:37;;;;;;;9.65;1.50;;;;;;;20.85;39.17;100878.28;1763789;79;20889;-79
2022/05/02 11:43:03;;;;;;;13.88;2.00;;;;;;;20.85;39.13;100886.58;1759082;79;21080;-78
2022/05/02 11:45:43;;;;;;;10.72;2.10;;;;;;;20.85;39.04;100874.70;1780422;79;21059;-78
2022/05/02 11:48:43;;;;;;;7.58;1.70;;;;;;;20.86;39.13;100873.02;1727225;78;21149;-79
2022/05/02 11:51:13;;;;;;;7.40;1.98;;;;;;;20.86;39.17;100858.37;1768473;78;21333;-79
2022/05/02 11:53:40;;;;;;;7.10;1.55;;;;;;;20.87;39.01;100862.77;1779672;78;21116;-80
2022/05/02 11:56:06;;;;;;;11.38;1.77;;;;;;;20.86;39.08;100866.09;1754563;78;21158;-83
2022/05/02 11:58:43;;;;;;;7.87;1.70;;;;;;;20.88;39.20;100865.77;1777731;78;21633;-82
2022/05/02 12:01:10;;;;;;;7.97;2.08;;;;;;;20.90;39.27;100865.71;1783377;78;21060;-81
2022/05/02 12:03:57;;;;;;;15.18;2.70;;;;;;;20.92;39.31;100848.78;1779583;78;21087;-79
2022/05/02 12:06:51;;;;;;;6.12;1.98;;;;;;;20.93;39.43;100850.42;1739779;78;21120;-81
2022/05/02 12:09:22;;;;;;;9.85;1.87;;;;;;;20.94;39.30;100842.38;1779300;78;21135;-81
2022/05/02 12:11:55;;;;;;;13.45;2.00;;;;;;;20.92;39.06;100834.95;1792012;78;21547;-79
2022/05/02 12:14:27;;;;;;;10.43;1.77;;;;;;;20.92;39.06;100839.09;1791983;78;21079;-81
2022/05/02 12:17:10;;;;;;;10.25;1.77;;;;;;;20.90;39.10;100828.38;1761077;80;21362;-80
2022/05/02 12:19:38;;;;;;;8.33;1.85;;;;;;;20.90;39.17;100825.61;1786245;78;21048;-80
2022/05/02 12:22:23;;;;;;;6.75;2.00;;;;;;;20.90;39.22;100822.84;1780485;78;21060;-79
2022/05/02 12:24:49;;;;;;;5.58;1.70;;;;;;;20.90;39.24;100820.64;1747038;79;21072;-80
2022/05/02 12:27:16;;;;;;;7.25;2.00;;;;;;;20.90;39.24;100815.11;1769295;79;22209;-81